Time;durP1;ratioP1;P1;durP2;ratioP2;P2;SDS_P1;SDS_P2;PMS_P1;PMS_P2;Temp;Humidity;BMP_temperature;BMP_pressure;BME280_temperature;BME280_humidity;BME280_pressure;Samples;Min_cycle;Max_cycle;Signal;HPM_P1;HPM_P2
2023/06/19 00:01:12;;;;;;;;;;;;;;;23.16;57.48;99475.91;5092428;28;19955;-36
2023/06/19 00:03:37;;;;;;;;;;;;;;;23.08;58.26;99471.13;5092208;28;19932;-37
2023/06/19 00:06:02;;;;;;;;;;;;;;;23.16;58.32;99478.59;5092380;28;19994;-36
2023/06/19 00:08:27;;;;;;;;;;;;;;;23.44;57.92;99481.47;5092237;28;19919;-36
2023/06/19 00:10:53;;;;;;;;;;;;;;;23.56;56.99;99470.94;5092498;28;19956;-36
2023/06/19 00:13:18;;;;;;;;;;;;;;;23.25;57.55;99475.22;5092043;28;19916;-36
2023/06/19 00:15:44;;;;;;;;;;;;;;;23.15;58.25;99481.59;5092095;28;19981;-36
2023/06/19 00:18:10;;;;;;;;;;;;;;;22.89;58.69;99476.50;5092321;28;19947;-36
2023/06/19 00:20:36;;;;;;;;;;;;;;;22.59;59.78;99481.22;5092007;28;20003;-36
2023/06/19 00:23:01;;;;;;;;;;;;;;;22.88;58.95;99482.22;5092050;28;20310;-36
2023/06/19 00:25:26;;;;;;;;;;;;;;;22.99;58.30;99489.94;5091730;28;19912;-35
2023/06/19 00:27:52;;;;;;;;;;;;;;;22.96;58.97;99482.41;5092255;28;20400;-36
2023/06/19 00:30:17;;;;;;;;;;;;;;;23.10;57.97;99489.84;5091691;28;20463;-35
2023/06/19 00:32:46;;;;;;;;;;;;;;;23.19;57.52;99494.31;5091706;28;19927;-35
2023/06/19 00:35:15;;;;;;;;;;;;;;;23.26;58.13;99490.41;5091735;28;20010;-36
2023/06/19 00:37:44;;;;;;;;;;;;;;;23.39;57.37;99484.25;5091730;28;19912;-36
2023/06/19 00:40:12;;;;;;;;;;;;;;;23.18;57.29;99489.19;5091833;28;19970;-36
2023/06/19 00:42:37;;;;;;;;;;;;;;;23.15;58.00;99487.88;5091544;28;19950;-36
2023/06/19 00:45:03;;;;;;;;;;;;;;;23.31;57.05;99493.88;5091631;28;19935;-36
2023/06/19 00:47:28;;;;;;;;;;;;;;;22.99;57.57;99489.13;5110571;28;20000;-36
2023/06/19 00:49:53;;;;;;;;;;;;;;;22.55;59.17;99491.03;5112040;28;19912;-36
2023/06/19 00:52:19;;;;;;;;;;;;;;;22.97;57.75;99486.72;5110670;28;20010;-36
2023/06/19 00:54:44;;;;;;;;;;;;;;;22.48;59.13;99479.72;5111731;27;19998;-36
2023/06/19 00:57:10;;;;;;;;;;;;;;;22.62;59.04;99486.06;5110927;28;20279;-36
2023/06/19 00:59:35;;;;;;;;;;;;;;;22.71;58.64;99480.81;5096783;28;19923;-37
2023/06/19 01:02:01;;;;;;;;;;;;;;;22.77;58.85;99482.38;5091353;28;19912;-36
2023/06/19 01:04:26;;;;;;;;;;;;;;;22.60;58.71;99485.56;5091438;28;19951;-36
2023/06/19 01:06:52;;;;;;;;;;;;;;;22.71;58.06;99485.41;5091000;28;19995;-36
2023/06/19 01:09:19;;;;;;;;;;;;;;;22.62;58.71;99491.50;5091128;28;19912;-36
2023/06/19 01:11:50;;;;;;;;;;;;;;;22.71;58.41;99483.50;5091349;28;19916;-36
2023/06/19 01:14:21;;;;;;;;;;;;;;;22.68;58.05;99475.97;5091290;28;20015;-38
2023/06/19 01:16:47;;;;;;;;;;;;;;;22.85;57.49;99486.34;5091055;28;19942;-36
2023/06/19 01:19:15;;;;;;;;;;;;;;;22.96;57.06;99479.69;5090769;28;19955;-36
2023/06/19 01:21:41;;;;;;;;;;;;;;;23.11;57.12;99475.97;5091048;28;19998;-37
2023/06/19 01:24:06;;;;;;;;;;;;;;;22.83;56.88;99475.78;5091057;28;19958;-37
2023/06/19 01:26:32;;;;;;;;;;;;;;;22.43;58.42;99474.38;5091201;28;19912;-37
2023/06/19 01:28:57;;;;;;;;;;;;;;;22.33;58.51;99472.59;5090784;28;19920;-37
2023/06/19 01:31:37;;;;;;;;;;;;;;;22.96;56.64;99474.25;5090528;28;19927;-36
2023/06/19 01:34:04;;;;;;;;;;;;;;;22.94;57.46;99481.06;5091030;28;19918;-36
2023/06/19 01:36:29;;;;;;;;;;;;;;;22.90;58.06;99483.53;5091164;28;19916;-37
2023/06/19 01:38:57;;;;;;;;;;;;;;;22.92;56.96;99475.91;5091402;28;20404;-37
2023/06/19 01:41:23;;;;;;;;;;;;;;;23.01;56.50;99470.66;5091740;28;19912;-36
2023/06/19 01:43:49;;;;;;;;;;;;;;;23.03;57.44;99472.00;5091449;28;19994;-36
2023/06/19 01:46:14;;;;;;;;;;;;;;;22.77;56.80;99473.41;5100288;28;20453;-37
2023/06/19 01:48:40;;;;;;;;;;;;;;;23.00;56.63;99471.78;5111680;28;19919;-37
2023/06/19 01:51:05;;;;;;;;;;;;;;;22.70;57.50;99472.97;5111145;28;19968;-37
2023/06/19 01:53:31;;;;;;;;;;;;;;;22.71;57.25;99467.25;5111727;28;19962;-37
2023/06/19 01:55:57;;;;;;;;;;;;;;;22.49;57.38;99467.78;5111665;28;20006;-37
2023/06/19 01:58:22;;;;;;;;;;;;;;;22.87;56.94;99472.50;5111556;28;20290;-37
2023/06/19 02:00:47;;;;;;;;;;;;;;;22.72;56.78;99474.28;5111430;28;19950;-36
2023/06/19 02:03:13;;;;;;;;;;;;;;;22.54;57.44;99475.88;5111650;28;19919;-36
2023/06/19 02:05:39;;;;;;;;;;;;;;;21.90;59.24;99477.84;5111499;28;20088;-36
2023/06/19 02:08:05;;;;;;;;;;;;;;;22.32;57.75;99472.88;5112321;28;19916;-36
2023/06/19 02:10:30;;;;;;;;;;;;;;;22.56;57.34;99476.38;5115685;28;19912;-37
2023/06/19 02:12:55;;;;;;;;;;;;;;;22.70;56.62;99472.97;5115304;28;20297;-37
2023/06/19 02:15:21;;;;;;;;;;;;;;;22.44;57.89;99465.94;5115696;28;19912;-36
2023/06/19 02:17:46;;;;;;;;;;;;;;;22.61;57.21;99475.50;5115825;28;19911;-37
2023/06/19 02:20:12;;;;;;;;;;;;;;;22.86;56.62;99485.22;5099999;28;19916;-38
2023/06/19 02:22:38;;;;;;;;;;;;;;;22.96;55.94;99481.56;5094598;28;19919;-35
2023/06/19 02:25:03;;;;;;;;;;;;;;;22.52;56.40;99483.47;5095058;28;19919;-36
2023/06/19 02:27:28;;;;;;;;;;;;;;;22.97;55.36;99491.34;5094748;28;20407;-37
2023/06/19 02:29:54;;;;;;;;;;;;;;;22.96;55.15;99487.00;5097782;28;20056;-37
2023/06/19 02:32:19;;;;;;;;;;;;;;;22.52;56.62;99488.09;5104378;28;20276;-37
2023/06/19 02:34:45;;;;;;;;;;;;;;;22.36;56.89;99492.88;5107179;28;19958;-36
2023/06/19 02:37:10;;;;;;;;;;;;;;;22.77;55.92;99486.97;5098036;28;20320;-37
2023/06/19 02:39:35;;;;;;;;;;;;;;;22.79;55.71;99484.78;5115118;28;20224;-37
2023/06/19 02:42:00;;;;;;;;;;;;;;;22.72;57.44;99487.06;5114976;28;20024;-35
2023/06/19 02:44:26;;;;;;;;;;;;;;;22.79;55.61;99491.03;5114769;28;20377;-36
2023/06/19 02:46:51;;;;;;;;;;;;;;;22.56;56.03;99494.53;5109467;28;19911;-36
2023/06/19 02:49:16;;;;;;;;;;;;;;;22.30;57.54;99492.13;5114715;28;20370;-41
2023/06/19 02:51:41;;;;;;;;;;;;;;;22.33;56.83;99486.16;5114853;28;20462;-42
2023/06/19 02:54:07;;;;;;;;;;;;;;;22.15;56.94;99490.34;5115254;28;19919;-42
2023/06/19 02:56:32;;;;;;;;;;;;;;;22.39;56.90;99490.41;5097822;28;20248;-41
2023/06/19 02:58:57;;;;;;;;;;;;;;;22.36;56.45;99488.25;5092439;28;19923;-42
2023/06/19 03:01:23;;;;;;;;;;;;;;;22.80;55.87;99494.53;5094388;28;19969;-42
2023/06/19 03:03:48;;;;;;;;;;;;;;;22.27;56.29;99498.09;5094390;28;20321;-42
2023/06/19 03:06:13;;;;;;;;;;;;;;;22.48;56.58;99492.47;5084506;28;20395;-41
2023/06/19 03:08:39;;;;;;;;;;;;;;;22.36;56.41;99490.97;5073846;28;19916;-42
2023/06/19 03:11:05;;;;;;;;;;;;;;;22.57;56.13;99496.16;5082666;28;19916;-43
2023/06/19 03:13:48;;;;;;;;;;;;;;;22.39;56.88;99498.53;5094092;28;19920;-42
2023/06/19 03:16:17;;;;;;;;;;;;;;;22.52;56.42;99494.31;5091343;28;20383;-41
2023/06/19 03:18:45;;;;;;;;;;;;;;;22.66;56.00;99491.72;5093103;28;20007;-43
2023/06/19 03:21:11;;;;;;;;;;;;;;;22.35;56.74;99489.38;5092568;28;20040;-42
2023/06/19 03:23:36;;;;;;;;;;;;;;;22.37;56.91;99494.47;5093436;28;19912;-42
2023/06/19 03:26:02;;;;;;;;;;;;;;;22.31;57.49;99495.63;5093655;28;20368;-42
2023/06/19 03:28:27;;;;;;;;;;;;;;;22.19;57.66;99501.44;5093620;28;19919;-43
2023/06/19 03:30:53;;;;;;;;;;;;;;;22.20;57.58;99500.31;5092116;28;20441;-41
2023/06/19 03:33:19;;;;;;;;;;;;;;;22.39;57.30;99509.38;5091255;28;19930;-41
2023/06/19 03:35:44;;;;;;;;;;;;;;;22.22;58.04;99504.38;5091204;28;19912;-41
2023/06/19 03:38:09;;;;;;;;;;;;;;;22.13;58.07;99497.16;5091104;28;19916;-41
2023/06/19 03:40:34;;;;;;;;;;;;;;;22.38;57.42;99498.81;5091407;28;20413;-42
2023/06/19 03:43:00;;;;;;;;;;;;;;;22.33;57.83;99507.00;5091004;28;19947;-40
2023/06/19 03:45:25;;;;;;;;;;;;;;;22.26;57.62;99501.94;5092030;28;20538;-40
2023/06/19 03:47:51;;;;;;;;;;;;;;;22.65;56.80;99507.16;5092440;28;19912;-41
2023/06/19 03:50:16;;;;;;;;;;;;;;;23.23;55.40;99514.34;5092376;28;20012;-40
2023/06/19 03:52:41;;;;;;;;;;;;;;;22.93;55.73;99504.69;5092918;28;19916;-41
2023/06/19 03:55:07;;;;;;;;;;;;;;;23.39;54.89;99516.84;5093140;28;19922;-42
2023/06/19 03:57:32;;;;;;;;;;;;;;;23.43;54.75;99507.78;5092828;28;19912;-42
2023/06/19 03:59:57;;;;;;;;;;;;;;;23.49;54.45;99508.53;5092956;28;19931;-42
2023/06/19 04:02:23;;;;;;;;;;;;;;;23.57;53.98;99494.28;5093262;28;19939;-41
2023/06/19 04:04:48;;;;;;;;;;;;;;;24.03;52.67;99492.75;5093250;28;19962;-42
2023/06/19 04:07:13;;;;;;;;;;;;;;;24.34;51.95;99490.25;5093115;28;20252;-41
2023/06/19 04:09:39;;;;;;;;;;;;;;;24.63;51.37;99486.47;5092612;28;19923;-42
2023/06/19 04:12:04;;;;;;;;;;;;;;;24.92;50.14;99497.03;5092055;28;19920;-42
2023/06/19 04:14:30;;;;;;;;;;;;;;;24.54;51.24;99489.09;5092129;28;19943;-42
2023/06/19 04:16:55;;;;;;;;;;;;;;;24.75;50.98;99489.50;5092207;28;20326;-42
2023/06/19 04:19:20;;;;;;;;;;;;;;;25.02;50.04;99492.47;5092244;28;19912;-42
2023/06/19 04:21:45;;;;;;;;;;;;;;;25.59;48.89;99483.84;5092243;28;20079;-43
2023/06/19 04:24:11;;;;;;;;;;;;;;;25.41;49.11;99486.44;5091798;28;20007;-43
2023/06/19 04:26:39;;;;;;;;;;;;;;;26.05;47.74;99483.53;5092029;28;19920;-43
2023/06/19 04:29:06;;;;;;;;;;;;;;;26.16;47.03;99491.41;5092079;28;20388;-44
2023/06/19 04:31:31;;;;;;;;;;;;;;;25.98;47.20;99490.53;5090771;28;19920;-43
2023/06/19 04:33:57;;;;;;;;;;;;;;;26.37;46.67;99488.94;5091696;28;20014;-43
2023/06/19 04:36:22;;;;;;;;;;;;;;;26.40;46.36;99494.56;5091770;28;20447;-41
2023/06/19 04:38:48;;;;;;;;;;;;;;;26.28;46.68;99491.66;5091674;28;19988;-41
2023/06/19 04:41:13;;;;;;;;;;;;;;;26.85;45.76;99493.63;5091850;28;19923;-42
2023/06/19 04:43:41;;;;;;;;;;;;;;;26.90;45.17;99494.28;5091118;28;19940;-42
2023/06/19 04:46:06;;;;;;;;;;;;;;;27.32;44.18;99496.56;5091064;28;19994;-42
2023/06/19 04:48:32;;;;;;;;;;;;;;;27.60;43.91;99499.78;5091632;28;20374;-42
2023/06/19 04:50:57;;;;;;;;;;;;;;;27.77;43.24;99500.91;5091469;28;19948;-42
2023/06/19 04:53:22;;;;;;;;;;;;;;;27.96;43.00;99498.63;5089357;28;19977;-42
2023/06/19 04:55:49;;;;;;;;;;;;;;;28.24;42.08;99495.50;5090131;28;20345;-43
2023/06/19 04:58:14;;;;;;;;;;;;;;;28.47;41.99;99499.56;5090292;28;20020;-43
2023/06/19 05:00:40;;;;;;;;;;;;;;;28.97;40.51;99487.06;5090325;28;20387;-42
2023/06/19 05:03:05;;;;;;;;;;;;;;;29.26;39.96;99498.34;5090307;28;19919;-43
2023/06/19 05:05:30;;;;;;;;;;;;;;;29.71;39.31;99501.16;5090683;28;19912;-43
2023/06/19 05:07:56;;;;;;;;;;;;;;;29.33;39.57;99498.63;5091104;28;19912;-47
2023/06/19 05:10:21;;;;;;;;;;;;;;;29.77;38.89;99496.31;5091618;28;19928;-42
2023/06/19 05:12:46;;;;;;;;;;;;;;;29.71;38.58;99492.16;5091118;28;19923;-43
2023/06/19 05:15:12;;;;;;;;;;;;;;;29.26;39.58;99496.41;5091363;28;19961;-44
2023/06/19 05:17:38;;;;;;;;;;;;;;;29.72;39.32;99505.53;5091375;28;20494;-44
2023/06/19 05:20:04;;;;;;;;;;;;;;;29.78;38.77;99498.72;5091325;28;20406;-42
2023/06/19 05:22:31;;;;;;;;;;;;;;;30.20;38.11;99508.75;5091304;28;19916;-42
2023/06/19 05:24:56;;;;;;;;;;;;;;;29.43;38.53;99503.69;5091218;28;20310;-42
2023/06/19 05:27:21;;;;;;;;;;;;;;;30.11;37.82;99502.56;5091165;28;20392;-43
2023/06/19 05:29:47;;;;;;;;;;;;;;;29.70;38.38;99501.50;5091111;28;19912;-42
2023/06/19 05:32:12;;;;;;;;;;;;;;;29.35;38.52;99502.59;5090869;28;19931;-43
2023/06/19 05:34:38;;;;;;;;;;;;;;;28.81;39.91;99508.78;5090701;28;19912;-42
2023/06/19 05:37:03;;;;;;;;;;;;;;;29.28;38.90;99499.59;5090511;28;19912;-43
2023/06/19 05:39:29;;;;;;;;;;;;;;;29.91;37.74;99506.97;5104830;28;19916;-42
2023/06/19 05:41:54;;;;;;;;;;;;;;;30.29;37.42;99503.13;5111713;28;20415;-42
2023/06/19 05:44:19;;;;;;;;;;;;;;;30.36;37.26;99501.47;5112065;28;19923;-43
2023/06/19 05:46:45;;;;;;;;;;;;;;;30.51;37.12;99501.94;5112101;28;20009;-43
2023/06/19 05:49:10;;;;;;;;;;;;;;;30.31;37.29;99504.41;5112002;28;19912;-41
2023/06/19 05:51:35;;;;;;;;;;;;;;;30.00;37.52;99513.94;5109651;28;19920;-37
2023/06/19 05:54:03;;;;;;;;;;;;;;;29.69;38.19;99503.44;5105416;28;19922;-37
2023/06/19 05:56:36;;;;;;;;;;;;;;;29.75;38.04;99506.81;5111809;28;19919;-36
2023/06/19 05:59:01;;;;;;;;;;;;;;;30.89;36.48;99514.50;5112030;28;20006;-36
2023/06/19 06:01:29;;;;;;;;;;;;;;;31.41;35.34;99508.22;5111336;28;19962;-36
2023/06/19 06:03:55;;;;;;;;;;;;;;;31.52;35.45;99512.09;5111036;28;19968;-35
2023/06/19 06:06:20;;;;;;;;;;;;;;;31.87;34.49;99507.91;5111133;28;20338;-36
2023/06/19 06:08:46;;;;;;;;;;;;;;;32.76;33.93;99512.13;5110938;28;19941;-36
2023/06/19 06:11:11;;;;;;;;;;;;;;;32.61;33.71;99522.03;5109266;28;19941;-37
2023/06/19 06:13:36;;;;;;;;;;;;;;;33.04;33.33;99509.22;5109716;28;19954;-38
2023/06/19 06:16:02;;;;;;;;;;;;;;;33.58;32.61;99504.84;5110732;28;19994;-37
2023/06/19 06:18:27;;;;;;;;;;;;;;;33.26;32.33;99505.00;5110313;28;20014;-35
2023/06/19 06:20:52;;;;;;;;;;;;;;;33.10;32.55;99507.00;5110146;28;19912;-37
2023/06/19 06:23:18;;;;;;;;;;;;;;;31.75;33.52;99511.53;5110677;28;20431;-37
2023/06/19 06:25:45;;;;;;;;;;;;;;;31.51;33.85;99506.94;5110793;28;20438;-36
2023/06/19 06:28:10;;;;;;;;;;;;;;;32.29;33.24;99508.25;5110889;28;19939;-36
2023/06/19 06:30:36;;;;;;;;;;;;;;;32.72;32.75;99506.53;5111038;28;20376;-36
2023/06/19 06:33:01;;;;;;;;;;;;;;;32.25;33.21;99507.38;5111107;28;19996;-36
2023/06/19 06:35:26;;;;;;;;;;;;;;;32.39;33.09;99503.38;5110902;28;19911;-36
2023/06/19 06:37:52;;;;;;;;;;;;;;;33.24;32.22;99510.09;5111247;28;19915;-37
2023/06/19 06:40:17;;;;;;;;;;;;;;;32.29;33.16;99511.03;5110810;28;20012;-35
2023/06/19 06:42:42;;;;;;;;;;;;;;;32.70;32.29;99522.63;5110764;28;19919;-35
2023/06/19 06:45:08;;;;;;;;;;;;;;;33.06;32.12;99508.88;5110984;28;20379;-36
2023/06/19 06:47:37;;;;;;;;;;;;;;;33.40;31.42;99504.50;5110286;28;19912;-36
2023/06/19 06:50:02;;;;;;;;;;;;;;;33.05;31.73;99508.09;5110862;28;19912;-36
2023/06/19 06:52:27;;;;;;;;;;;;;;;32.43;32.66;99515.28;5110773;28;19916;-36
2023/06/19 06:54:53;;;;;;;;;;;;;;;32.63;32.22;99510.66;5110984;28;19912;-36
2023/06/19 06:57:18;;;;;;;;;;;;;;;32.29;32.83;99516.53;5114351;28;19932;-36
2023/06/19 06:59:43;;;;;;;;;;;;;;;32.86;32.08;99511.59;5114393;28;20015;-35
2023/06/19 07:02:09;;;;;;;;;;;;;;;32.18;32.77;99518.19;5114272;28;19912;-35
2023/06/19 07:04:34;;;;;;;;;;;;;;;33.20;31.49;99527.69;5114548;28;19955;-35
2023/06/19 07:06:59;;;;;;;;;;;;;;;32.45;32.69;99519.25;5114495;28;19923;-36
2023/06/19 07:09:25;;;;;;;;;;;;;;;32.72;32.08;99517.56;5114302;28;19987;-36
2023/06/19 07:11:50;;;;;;;;;;;;;;;32.69;32.30;99525.75;5114434;28;19916;-36
2023/06/19 07:14:17;;;;;;;;;;;;;;;32.76;32.37;99523.16;5114367;28;20305;-36
2023/06/19 07:16:43;;;;;;;;;;;;;;;32.73;32.36;99524.69;5114513;28;19912;-37
2023/06/19 07:19:09;;;;;;;;;;;;;;;33.20;31.99;99528.50;5113820;28;20430;-35
2023/06/19 07:21:34;;;;;;;;;;;;;;;33.34;31.01;99525.25;5113725;28;20000;-35
2023/06/19 07:23:59;;;;;;;;;;;;;;;33.53;31.10;99529.97;5114073;28;20355;-36
2023/06/19 07:26:25;;;;;;;;;;;;;;;32.54;31.20;99524.59;5113868;28;20346;-36
2023/06/19 07:28:50;;;;;;;;;;;;;;;31.69;32.84;99527.50;5113781;28;20359;-35
2023/06/19 07:31:16;;;;;;;;;;;;;;;32.66;32.35;99530.03;5113213;28;19920;-36
2023/06/19 07:33:41;;;;;;;;;;;;;;;33.38;31.06;99528.09;5113817;28;20358;-37
2023/06/19 07:36:06;;;;;;;;;;;;;;;33.23;31.14;99530.53;5113437;28;20015;-35
2023/06/19 07:38:32;;;;;;;;;;;;;;;33.22;30.69;99517.91;5113419;28;19918;-36
2023/06/19 07:40:57;;;;;;;;;;;;;;;33.27;31.59;99523.13;5113203;28;19918;-36
2023/06/19 07:43:22;;;;;;;;;;;;;;;33.77;30.49;99520.59;5113290;28;19915;-36
2023/06/19 07:45:49;;;;;;;;;;;;;;;33.03;31.19;99526.91;5113469;28;19934;-36
2023/06/19 07:48:14;;;;;;;;;;;;;;;33.35;30.38;99523.28;5113069;28;20379;-36
2023/06/19 07:50:39;;;;;;;;;;;;;;;33.27;30.51;99523.13;5113517;28;20007;-45
2023/06/19 07:53:05;;;;;;;;;;;;;;;33.60;30.08;99521.81;5113374;28;19915;-42
2023/06/19 07:55:30;;;;;;;;;;;;;;;32.93;30.54;99525.50;5113168;28;19968;-42
2023/06/19 07:57:56;;;;;;;;;;;;;;;33.41;30.61;99524.59;5113318;28;19919;-45
2023/06/19 08:00:22;;;;;;;;;;;;;;;33.39;30.76;99532.44;5111697;28;19912;-43
2023/06/19 08:02:47;;;;;;;;;;;;;;;33.90;28.97;99521.25;5112752;28;20229;-43
2023/06/19 08:05:13;;;;;;;;;;;;;;;33.94;28.69;99524.06;5112850;28;20003;-42
2023/06/19 08:07:38;;;;;;;;;;;;;;;34.08;29.13;99527.88;5112721;28;19912;-42
2023/06/19 08:10:04;;;;;;;;;;;;;;;33.56;29.31;99518.19;5112695;28;19938;-42
2023/06/19 08:12:30;;;;;;;;;;;;;;;34.57;28.47;99525.56;5112844;28;19911;-42
2023/06/19 08:14:55;;;;;;;;;;;;;;;35.15;28.10;99516.94;5112411;28;19951;-42
2023/06/19 08:17:20;;;;;;;;;;;;;;;35.49;27.20;99528.06;5112836;28;19962;-42
2023/06/19 08:19:45;;;;;;;;;;;;;;;34.63;28.24;99524.88;5112597;28;20336;-42
2023/06/19 08:22:11;;;;;;;;;;;;;;;34.23;28.71;99528.97;5112699;28;20245;-42
2023/06/19 08:24:38;;;;;;;;;;;;;;;34.20;28.84;99526.16;5112307;28;19911;-42
2023/06/19 08:27:04;;;;;;;;;;;;;;;34.55;28.02;99522.38;5112239;28;19975;-42
2023/06/19 08:29:29;;;;;;;;;;;;;;;34.99;28.12;99519.09;5112137;28;20344;-42
2023/06/19 08:31:54;;;;;;;;;;;;;;;35.58;27.51;99516.69;5111703;28;19920;-43
2023/06/19 08:34:20;;;;;;;;;;;;;;;35.67;27.17;99519.97;5111902;28;19975;-42
2023/06/19 08:36:45;;;;;;;;;;;;;;;35.81;27.88;99524.88;5112186;28;19919;-41
2023/06/19 08:39:10;;;;;;;;;;;;;;;34.37;28.77;99530.38;5112274;28;20019;-42
2023/06/19 08:41:37;;;;;;;;;;;;;;;34.27;28.71;99534.53;5112214;28;19919;-42
2023/06/19 08:44:03;;;;;;;;;;;;;;;34.13;28.51;99523.22;5112467;28;19912;-43
2023/06/19 08:46:28;;;;;;;;;;;;;;;34.13;28.63;99520.47;5112356;28;19912;-41
2023/06/19 08:48:54;;;;;;;;;;;;;;;34.26;27.71;99527.44;5111932;28;19968;-42
2023/06/19 08:51:19;;;;;;;;;;;;;;;34.87;28.49;99524.84;5111988;28;19923;-45
2023/06/19 08:53:46;;;;;;;;;;;;;;;33.17;28.90;99534.75;5112126;28;19916;-42
2023/06/19 08:56:12;;;;;;;;;;;;;;;33.63;28.44;99521.13;5112063;28;19992;-43
2023/06/19 08:58:38;;;;;;;;;;;;;;;34.40;28.02;99518.56;5111498;28;20380;-43
2023/06/19 09:01:03;;;;;;;;;;;;;;;34.71;27.21;99525.81;5111278;28;20368;-42
2023/06/19 09:03:28;;;;;;;;;;;;;;;34.44;28.29;99524.94;5111520;28;19911;-43
2023/06/19 09:05:54;;;;;;;;;;;;;;;35.04;26.43;99519.56;5111568;28;19912;-46
2023/06/19 09:08:20;;;;;;;;;;;;;;;34.72;26.90;99519.09;5111330;27;20007;-42
2023/06/19 09:11:01;;;;;;;;;;;;;;;34.84;27.16;99510.63;5111404;28;19922;-42
2023/06/19 09:13:30;;;;;;;;;;;;;;;34.64;27.60;99520.94;5110818;28;20397;-43
2023/06/19 09:15:59;;;;;;;;;;;;;;;34.84;27.25;99509.78;5109810;28;19912;-44
2023/06/19 09:18:25;;;;;;;;;;;;;;;35.02;27.03;99512.81;5110754;28;20320;-43
2023/06/19 09:20:52;;;;;;;;;;;;;;;35.55;26.71;99511.94;5110992;28;20435;-42
2023/06/19 09:23:17;;;;;;;;;;;;;;;35.33;26.96;99508.09;5111238;28;19951;-41
2023/06/19 09:25:44;;;;;;;;;;;;;;;34.56;27.54;99507.41;5111421;28;20008;-44
2023/06/19 09:28:16;;;;;;;;;;;;;;;34.42;28.08;99500.47;5110960;28;19949;-43
2023/06/19 09:30:51;;;;;;;;;;;;;;;35.10;27.22;99499.88;5110569;28;19975;-42
2023/06/19 09:33:16;;;;;;;;;;;;;;;35.26;27.06;99491.41;5111076;28;19920;-44
2023/06/19 09:35:41;;;;;;;;;;;;;;;34.77;26.68;99499.44;5111083;28;19995;-42
2023/06/19 09:38:07;;;;;;;;;;;;;;;34.94;26.24;99489.81;5111019;28;19912;-43
2023/06/19 09:40:33;;;;;;;;;;;;;;;34.42;26.97;99497.72;5111228;28;20332;-42
2023/06/19 09:42:59;;;;;;;;;;;;;;;35.24;26.67;99492.59;5110886;28;19911;-43
2023/06/19 09:45:26;;;;;;;;;;;;;;;35.69;26.50;99492.72;5111099;28;20427;-41
2023/06/19 09:47:53;;;;;;;;;;;;;;;35.19;25.88;99489.38;5111255;28;20377;-44
2023/06/19 09:50:22;;;;;;;;;;;;;;;35.28;25.79;99484.34;5111069;28;19916;-43
2023/06/19 09:52:50;;;;;;;;;;;;;;;35.06;25.58;99486.00;5110891;28;19920;-43
2023/06/19 09:55:19;;;;;;;;;;;;;;;34.99;25.69;99483.94;5110893;28;20248;-43
2023/06/19 09:57:45;;;;;;;;;;;;;;;35.28;25.83;99478.00;5110922;28;19979;-42
2023/06/19 10:00:18;;;;;;;;;;;;;;;35.30;26.48;99478.44;5111198;28;19967;-42
2023/06/19 10:02:44;;;;;;;;;;;;;;;34.71;26.97;99475.25;5111003;28;19919;-44
2023/06/19 10:05:12;;;;;;;;;;;;;;;34.90;26.83;99471.56;5110499;28;19968;-42
2023/06/19 10:07:40;;;;;;;;;;;;;;;35.15;26.87;99471.91;5111088;28;20383;-44
2023/06/19 10:10:07;;;;;;;;;;;;;;;34.82;26.07;99467.91;5110829;28;19920;-43
2023/06/19 10:12:43;;;;;;;;;;;;;;;35.81;25.72;99472.28;5110990;28;19923;-44
2023/06/19 10:15:12;;;;;;;;;;;;;;;35.78;25.93;99467.53;5110607;28;20315;-43
2023/06/19 10:17:38;;;;;;;;;;;;;;;35.71;26.00;99462.72;5110671;28;19919;-43
2023/06/19 10:20:04;;;;;;;;;;;;;;;35.35;26.84;99467.81;5111017;28;19912;-43
2023/06/19 10:22:32;;;;;;;;;;;;;;;36.00;25.14;99455.47;5110831;28;20029;-43
2023/06/19 10:24:57;;;;;;;;;;;;;;;36.48;24.26;99463.00;5110775;28;20083;-40
2023/06/19 10:27:24;;;;;;;;;;;;;;;36.11;25.83;99465.84;5110888;28;20117;-43
2023/06/19 10:29:53;;;;;;;;;;;;;;;36.42;24.74;99467.28;5111080;28;19912;-42
2023/06/19 10:32:18;;;;;;;;;;;;;;;35.94;25.21;99457.00;5114345;28;20363;-42
2023/06/19 10:34:48;;;;;;;;;;;;;;;35.77;25.23;99449.31;5115114;28;20033;-42
2023/06/19 10:37:14;;;;;;;;;;;;;;;36.22;24.07;99452.13;5113277;28;19994;-44
2023/06/19 10:39:39;;;;;;;;;;;;;;;36.20;24.67;99450.50;5114319;28;20011;-43
2023/06/19 10:42:06;;;;;;;;;;;;;;;35.84;24.54;99451.38;5114536;28;19924;-45
2023/06/19 10:44:32;;;;;;;;;;;;;;;36.04;25.00;99440.84;5114793;28;19918;-42
2023/06/19 10:46:57;;;;;;;;;;;;;;;36.00;24.82;99452.72;5114412;28;19990;-43
2023/06/19 10:49:23;;;;;;;;;;;;;;;37.04;23.86;99437.97;5114287;28;19912;-42
2023/06/19 10:51:48;;;;;;;;;;;;;;;37.86;23.13;99434.63;5113756;28;19916;-42
2023/06/19 10:54:13;;;;;;;;;;;;;;;37.92;23.06;99433.03;5114316;28;19918;-43
2023/06/19 10:56:39;;;;;;;;;;;;;;;38.60;22.77;99432.22;5102119;27;20018;-43
2023/06/19 10:59:06;;;;;;;;;;;;;;;38.88;21.39;99426.56;5090509;28;19934;-42
2023/06/19 11:01:36;;;;;;;;;;;;;;;37.23;23.18;99425.78;5091797;28;20388;-44
2023/06/19 11:04:08;;;;;;;;;;;;;;;36.36;24.32;99428.06;5091242;28;19920;-41
2023/06/19 11:06:34;;;;;;;;;;;;;;;36.58;24.21;99423.47;5093646;28;20026;-43
2023/06/19 11:09:00;;;;;;;;;;;;;;;36.71;25.30;99421.19;5093197;28;20422;-43
2023/06/19 11:11:39;;;;;;;;;;;;;;;37.62;24.41;99419.53;5093631;28;19968;-43
2023/06/19 11:14:04;;;;;;;;;;;;;;;37.29;23.73;99413.13;5093905;28;19919;-43
2023/06/19 11:16:30;;;;;;;;;;;;;;;37.82;23.87;99411.63;5093654;28;20002;-41
2023/06/19 11:18:58;;;;;;;;;;;;;;;37.88;24.33;99415.59;5092623;28;19916;-44
2023/06/19 11:21:30;;;;;;;;;;;;;;;37.78;23.91;99416.41;5090108;28;19959;-42
2023/06/19 11:23:57;;;;;;;;;;;;;;;38.29;22.19;99409.63;5093000;28;19916;-42
2023/06/19 11:26:24;;;;;;;;;;;;;;;37.73;23.25;99412.81;5090429;28;19947;-41
2023/06/19 11:28:49;;;;;;;;;;;;;;;38.27;22.18;99404.50;5092410;28;20018;-44
2023/06/19 11:31:15;;;;;;;;;;;;;;;38.62;22.86;99408.38;5092709;28;20026;-43
2023/06/19 11:33:40;;;;;;;;;;;;;;;38.65;22.75;99404.81;5093058;28;19931;-36
2023/06/19 11:36:06;;;;;;;;;;;;;;;38.43;22.98;99406.03;5093479;28;19936;-36
2023/06/19 11:38:34;;;;;;;;;;;;;;;38.53;22.58;99400.47;5093817;28;19923;-37
2023/06/19 11:40:59;;;;;;;;;;;;;;;38.43;21.01;99400.47;5092996;28;19912;-36
2023/06/19 11:43:29;;;;;;;;;;;;;;;37.13;22.41;99407.91;5093725;28;19912;-36
2023/06/19 11:46:07;;;;;;;;;;;;;;;37.41;22.65;99401.63;5093498;28;19912;-36
2023/06/19 11:48:35;;;;;;;;;;;;;;;37.00;22.35;99407.44;5093968;28;20396;-36
2023/06/19 11:51:01;;;;;;;;;;;;;;;37.75;22.19;99393.75;5093666;28;20016;-36
2023/06/19 11:53:26;;;;;;;;;;;;;;;37.97;22.40;99398.53;5093398;28;19955;-37
2023/06/19 11:55:52;;;;;;;;;;;;;;;38.69;21.19;99380.56;5091432;28;19916;-37
2023/06/19 11:58:19;;;;;;;;;;;;;;;39.09;21.34;99383.22;5092567;28;19912;-37
2023/06/19 12:00:44;;;;;;;;;;;;;;;39.40;22.09;99391.75;5092952;28;19919;-36
2023/06/19 12:03:10;;;;;;;;;;;;;;;37.99;22.31;99387.84;5092502;28;19916;-36
2023/06/19 12:05:35;;;;;;;;;;;;;;;37.31;22.42;99380.22;5092768;28;19912;-37
2023/06/19 12:08:02;;;;;;;;;;;;;;;37.56;22.42;99375.50;5092596;28;19919;-37
2023/06/19 12:10:28;;;;;;;;;;;;;;;37.69;22.86;99375.94;5090409;28;19973;-36
2023/06/19 12:12:53;;;;;;;;;;;;;;;38.09;22.41;99375.94;5092437;28;20030;-36
2023/06/19 12:15:18;;;;;;;;;;;;;;;37.79;22.62;99370.78;5092458;28;20318;-37
2023/06/19 12:17:45;;;;;;;;;;;;;;;37.19;23.71;99375.84;5092298;28;20027;-36
2023/06/19 12:20:10;;;;;;;;;;;;;;;35.89;24.22;99370.75;5092000;28;19912;-37
2023/06/19 12:22:35;;;;;;;;;;;;;;;36.21;24.61;99354.38;5092412;28;19961;-36
2023/06/19 12:25:01;;;;;;;;;;;;;;;36.71;24.36;99365.75;5092453;28;19912;-37
2023/06/19 12:27:26;;;;;;;;;;;;;;;36.87;24.03;99364.63;5092177;28;20375;-35
2023/06/19 12:29:52;;;;;;;;;;;;;;;37.60;23.30;99353.28;5091974;28;19966;-36
2023/06/19 12:32:17;;;;;;;;;;;;;;;36.92;23.06;99364.25;5091309;28;19951;-36
2023/06/19 12:34:46;;;;;;;;;;;;;;;37.50;22.27;99346.56;5090873;28;19912;-38
2023/06/19 12:37:13;;;;;;;;;;;;;;;37.47;21.81;99350.13;5091047;28;19982;-38
2023/06/19 12:39:38;;;;;;;;;;;;;;;37.29;22.37;99347.31;5089445;28;19927;-37
2023/06/19 12:42:03;;;;;;;;;;;;;;;37.27;22.62;99355.25;5091806;28;19916;-36